sensor_id;sensor_type;location;lat;lon;timestamp;P1;durP1;ratioP1;P2;durP2;ratioP2
12165;SDS011;6146;48.128;11.476;2023-02-28T00:01:20;3.90;;;3.47;;
12165;SDS011;6146;48.128;11.476;2023-02-28T00:03:46;4.40;;;3.57;;
12165;SDS011;6146;48.128;11.476;2023-02-28T00:06:12;4.30;;;3.73;;
12165;SDS011;6146;48.128;11.476;2023-02-28T00:08:38;4.77;;;3.23;;
12165;SDS011;6146;48.128;11.476;2023-02-28T00:11:11;5.27;;;3.93;;
12165;SDS011;6146;48.128;11.476;2023-02-28T00:13:38;3.93;;;3.53;;
12165;SDS011;6146;48.128;11.476;2023-02-28T00:16:07;4.13;;;3.63;;
12165;SDS011;6146;48.128;11.476;2023-02-28T00:18:38;5.57;;;3.77;;
12165;SDS011;6146;48.128;11.476;2023-02-28T00:21:04;4.33;;;3.67;;
12165;SDS011;6146;48.128;11.476;2023-02-28T00:23:30;4.67;;;4.17;;
12165;SDS011;6146;48.128;11.476;2023-02-28T00:25:55;4.47;;;3.97;;
12165;SDS011;6146;48.128;11.476;2023-02-28T00:28:21;4.00;;;3.33;;
12165;SDS011;6146;48.128;11.476;2023-02-28T00:30:47;4.17;;;3.67;;
12165;SDS011;6146;48.128;11.476;2023-02-28T00:33:13;4.40;;;4.00;;
12165;SDS011;6146;48.128;11.476;2023-02-28T00:35:38;5.27;;;4.20;;
12165;SDS011;6146;48.128;11.476;2023-02-28T00:38:04;5.30;;;4.00;;
12165;SDS011;6146;48.128;11.476;2023-02-28T00:40:30;4.43;;;3.90;;
12165;SDS011;6146;48.128;11.476;2023-02-28T00:42:56;4.20;;;3.80;;
12165;SDS011;6146;48.128;11.476;2023-02-28T00:45:21;5.60;;;4.33;;
12165;SDS011;6146;48.128;11.476;2023-02-28T00:47:47;5.07;;;4.17;;
12165;SDS011;6146;48.128;11.476;2023-02-28T00:50:15;5.07;;;4.27;;
12165;SDS011;6146;48.128;11.476;2023-02-28T00:52:42;6.17;;;4.47;;
12165;SDS011;6146;48.128;11.476;2023-02-28T00:55:07;6.10;;;4.60;;
12165;SDS011;6146;48.128;11.476;2023-02-28T00:57:33;7.47;;;5.00;;
12165;SDS011;6146;48.128;11.476;2023-02-28T00:59:59;5.87;;;4.37;;
12165;SDS011;6146;48.128;11.476;2023-02-28T01:02:24;6.03;;;4.40;;
12165;SDS011;6146;48.128;11.476;2023-02-28T01:04:50;6.13;;;4.13;;
12165;SDS011;6146;48.128;11.476;2023-02-28T01:07:15;5.17;;;4.13;;
12165;SDS011;6146;48.128;11.476;2023-02-28T01:09:41;5.73;;;4.63;;
12165;SDS011;6146;48.128;11.476;2023-02-28T01:12:07;4.70;;;4.10;;
12165;SDS011;6146;48.128;11.476;2023-02-28T01:14:33;4.63;;;4.13;;
12165;SDS011;6146;48.128;11.476;2023-02-28T01:16:59;4.63;;;4.10;;
12165;SDS011;6146;48.128;11.476;2023-02-28T01:19:25;4.20;;;3.77;;
12165;SDS011;6146;48.128;11.476;2023-02-28T01:21:51;5.73;;;4.43;;
12165;SDS011;6146;48.128;11.476;2023-02-28T01:24:16;4.40;;;3.87;;
12165;SDS011;6146;48.128;11.476;2023-02-28T01:26:42;6.10;;;4.20;;
12165;SDS011;6146;48.128;11.476;2023-02-28T01:29:07;4.57;;;4.07;;
12165;SDS011;6146;48.128;11.476;2023-02-28T01:31:33;6.80;;;4.20;;
12165;SDS011;6146;48.128;11.476;2023-02-28T01:33:59;4.57;;;3.93;;
12165;SDS011;6146;48.128;11.476;2023-02-28T01:36:24;5.53;;;4.23;;
12165;SDS011;6146;48.128;11.476;2023-02-28T01:38:50;5.53;;;4.30;;
12165;SDS011;6146;48.128;11.476;2023-02-28T01:41:17;5.03;;;4.03;;
12165;SDS011;6146;48.128;11.476;2023-02-28T01:46:11;4.23;;;3.83;;
12165;SDS011;6146;48.128;11.476;2023-02-28T01:48:42;4.73;;;4.27;;
12165;SDS011;6146;48.128;11.476;2023-02-28T01:51:17;5.67;;;4.33;;
12165;SDS011;6146;48.128;11.476;2023-02-28T01:53:48;4.67;;;4.10;;
12165;SDS011;6146;48.128;11.476;2023-02-28T01:56:20;6.07;;;4.13;;
12165;SDS011;6146;48.128;11.476;2023-02-28T01:58:50;6.27;;;4.20;;
12165;SDS011;6146;48.128;11.476;2023-02-28T02:01:17;6.43;;;4.77;;
12165;SDS011;6146;48.128;11.476;2023-02-28T02:03:49;5.23;;;4.03;;
12165;SDS011;6146;48.128;11.476;2023-02-28T02:06:24;4.87;;;4.33;;
12165;SDS011;6146;48.128;11.476;2023-02-28T02:08:54;5.80;;;3.73;;
12165;SDS011;6146;48.128;11.476;2023-02-28T02:11:20;5.17;;;4.13;;
12165;SDS011;6146;48.128;11.476;2023-02-28T02:13:54;7.10;;;4.43;;
12165;SDS011;6146;48.128;11.476;2023-02-28T02:16:51;4.97;;;4.20;;
12165;SDS011;6146;48.128;11.476;2023-02-28T02:19:46;10.83;;;4.40;;
12165;SDS011;6146;48.128;11.476;2023-02-28T02:22:41;4.87;;;4.37;;
12165;SDS011;6146;48.128;11.476;2023-02-28T02:28:17;4.83;;;4.20;;
12165;SDS011;6146;48.128;11.476;2023-02-28T02:31:06;5.20;;;4.23;;
12165;SDS011;6146;48.128;11.476;2023-02-28T02:34:01;5.37;;;4.27;;
12165;SDS011;6146;48.128;11.476;2023-02-28T02:36:35;6.30;;;4.43;;
12165;SDS011;6146;48.128;11.476;2023-02-28T02:39:14;5.57;;;4.30;;
12165;SDS011;6146;48.128;11.476;2023-02-28T02:41:49;5.27;;;4.33;;
12165;SDS011;6146;48.128;11.476;2023-02-28T02:44:24;6.33;;;4.07;;
12165;SDS011;6146;48.128;11.476;2023-02-28T02:47:14;5.73;;;4.57;;
12165;SDS011;6146;48.128;11.476;2023-02-28T02:49:45;6.37;;;4.60;;
12165;SDS011;6146;48.128;11.476;2023-02-28T02:52:16;6.47;;;5.07;;
12165;SDS011;6146;48.128;11.476;2023-02-28T02:54:46;6.07;;;4.43;;
12165;SDS011;6146;48.128;11.476;2023-02-28T02:57:19;6.13;;;4.13;;
12165;SDS011;6146;48.128;11.476;2023-02-28T02:59:55;6.67;;;4.73;;
12165;SDS011;6146;48.128;11.476;2023-02-28T03:02:22;5.00;;;4.50;;
12165;SDS011;6146;48.128;11.476;2023-02-28T03:04:50;5.57;;;4.57;;
12165;SDS011;6146;48.128;11.476;2023-02-28T03:07:18;5.20;;;4.50;;
12165;SDS011;6146;48.128;11.476;2023-02-28T03:09:51;5.17;;;4.67;;
12165;SDS011;6146;48.128;11.476;2023-02-28T03:12:17;6.90;;;5.07;;
12165;SDS011;6146;48.128;11.476;2023-02-28T03:15:02;6.07;;;4.73;;
12165;SDS011;6146;48.128;11.476;2023-02-28T03:25:47;6.87;;;5.20;;
12165;SDS011;6146;48.128;11.476;2023-02-28T03:31:27;7.37;;;5.30;;
12165;SDS011;6146;48.128;11.476;2023-02-28T03:34:24;6.60;;;4.87;;
12165;SDS011;6146;48.128;11.476;2023-02-28T03:36:55;7.03;;;5.17;;
12165;SDS011;6146;48.128;11.476;2023-02-28T03:39:28;6.33;;;5.03;;
12165;SDS011;6146;48.128;11.476;2023-02-28T03:42:00;7.30;;;5.23;;
12165;SDS011;6146;48.128;11.476;2023-02-28T03:50:22;6.30;;;5.53;;
12165;SDS011;6146;48.128;11.476;2023-02-28T03:53:15;6.27;;;5.10;;
12165;SDS011;6146;48.128;11.476;2023-02-28T03:55:48;6.87;;;5.60;;
12165;SDS011;6146;48.128;11.476;2023-02-28T03:58:29;7.20;;;5.50;;
12165;SDS011;6146;48.128;11.476;2023-02-28T04:01:11;9.47;;;6.50;;
12165;SDS011;6146;48.128;11.476;2023-02-28T04:03:41;8.27;;;5.80;;
12165;SDS011;6146;48.128;11.476;2023-02-28T04:06:08;7.63;;;6.00;;
12165;SDS011;6146;48.128;11.476;2023-02-28T04:08:48;6.90;;;5.70;;
12165;SDS011;6146;48.128;11.476;2023-02-28T04:11:21;7.07;;;5.80;;
12165;SDS011;6146;48.128;11.476;2023-02-28T04:13:47;7.90;;;6.37;;
12165;SDS011;6146;48.128;11.476;2023-02-28T04:16:13;7.27;;;6.27;;
12165;SDS011;6146;48.128;11.476;2023-02-28T04:18:39;7.53;;;5.93;;
12165;SDS011;6146;48.128;11.476;2023-02-28T04:21:05;8.03;;;5.97;;
12165;SDS011;6146;48.128;11.476;2023-02-28T04:23:31;8.83;;;6.80;;
12165;SDS011;6146;48.128;11.476;2023-02-28T04:25:57;7.47;;;6.60;;
12165;SDS011;6146;48.128;11.476;2023-02-28T04:28:23;8.43;;;6.70;;
12165;SDS011;6146;48.128;11.476;2023-02-28T04:30:56;8.00;;;6.43;;
12165;SDS011;6146;48.128;11.476;2023-02-28T04:33:22;10.00;;;6.70;;
12165;SDS011;6146;48.128;11.476;2023-02-28T04:35:48;10.77;;;7.33;;
12165;SDS011;6146;48.128;11.476;2023-02-28T04:38:13;9.57;;;7.17;;
12165;SDS011;6146;48.128;11.476;2023-02-28T04:40:39;9.07;;;7.10;;
12165;SDS011;6146;48.128;11.476;2023-02-28T04:43:04;10.40;;;7.50;;
12165;SDS011;6146;48.128;11.476;2023-02-28T04:45:30;8.07;;;6.87;;
12165;SDS011;6146;48.128;11.476;2023-02-28T04:47:57;9.63;;;7.13;;
12165;SDS011;6146;48.128;11.476;2023-02-28T04:50:23;8.70;;;6.50;;
12165;SDS011;6146;48.128;11.476;2023-02-28T04:52:48;9.47;;;7.17;;
12165;SDS011;6146;48.128;11.476;2023-02-28T04:55:14;9.53;;;7.43;;
12165;SDS011;6146;48.128;11.476;2023-02-28T04:57:39;9.77;;;7.73;;
12165;SDS011;6146;48.128;11.476;2023-02-28T05:00:07;9.07;;;7.30;;
12165;SDS011;6146;48.128;11.476;2023-02-28T05:02:36;9.90;;;7.70;;
12165;SDS011;6146;48.128;11.476;2023-02-28T05:05:03;9.97;;;6.90;;
12165;SDS011;6146;48.128;11.476;2023-02-28T05:07:29;8.67;;;7.30;;
12165;SDS011;6146;48.128;11.476;2023-02-28T05:09:54;9.83;;;7.70;;
12165;SDS011;6146;48.128;11.476;2023-02-28T05:12:20;12.53;;;8.37;;
12165;SDS011;6146;48.128;11.476;2023-02-28T05:14:45;8.47;;;7.17;;
12165;SDS011;6146;48.128;11.476;2023-02-28T05:17:11;11.80;;;8.30;;
12165;SDS011;6146;48.128;11.476;2023-02-28T05:19:37;11.30;;;8.40;;
12165;SDS011;6146;48.128;11.476;2023-02-28T05:22:02;9.57;;;7.53;;
12165;SDS011;6146;48.128;11.476;2023-02-28T05:24:28;11.10;;;8.57;;
12165;SDS011;6146;48.128;11.476;2023-02-28T05:26:54;10.87;;;8.53;;
12165;SDS011;6146;48.128;11.476;2023-02-28T05:29:20;11.33;;;9.17;;
12165;SDS011;6146;48.128;11.476;2023-02-28T05:31:46;10.40;;;8.53;;
12165;SDS011;6146;48.128;11.476;2023-02-28T05:34:12;12.43;;;9.00;;
12165;SDS011;6146;48.128;11.476;2023-02-28T05:36:38;12.83;;;8.57;;
12165;SDS011;6146;48.128;11.476;2023-02-28T05:39:07;12.03;;;9.37;;
12165;SDS011;6146;48.128;11.476;2023-02-28T05:41:37;13.17;;;9.30;;
12165;SDS011;6146;48.128;11.476;2023-02-28T05:44:04;9.90;;;8.33;;
12165;SDS011;6146;48.128;11.476;2023-02-28T05:46:29;12.37;;;9.43;;
12165;SDS011;6146;48.128;11.476;2023-02-28T05:48:55;12.07;;;9.30;;
12165;SDS011;6146;48.128;11.476;2023-02-28T05:51:22;13.33;;;9.10;;
12165;SDS011;6146;48.128;11.476;2023-02-28T05:53:48;10.90;;;8.97;;
12165;SDS011;6146;48.128;11.476;2023-02-28T05:56:14;13.43;;;10.10;;
12165;SDS011;6146;48.128;11.476;2023-02-28T05:58:40;12.17;;;10.20;;
12165;SDS011;6146;48.128;11.476;2023-02-28T06:03:55;17.07;;;10.40;;
12165;SDS011;6146;48.128;11.476;2023-02-28T06:06:21;16.83;;;10.30;;
12165;SDS011;6146;48.128;11.476;2023-02-28T06:08:47;14.70;;;10.67;;
12165;SDS011;6146;48.128;11.476;2023-02-28T06:11:13;15.67;;;10.43;;
12165;SDS011;6146;48.128;11.476;2023-02-28T06:13:38;13.13;;;10.10;;
12165;SDS011;6146;48.128;11.476;2023-02-28T06:16:04;13.83;;;11.30;;
12165;SDS011;6146;48.128;11.476;2023-02-28T06:18:30;13.03;;;10.23;;
12165;SDS011;6146;48.128;11.476;2023-02-28T06:20:55;12.30;;;10.23;;
12165;SDS011;6146;48.128;11.476;2023-02-28T06:23:21;14.47;;;10.77;;
12165;SDS011;6146;48.128;11.476;2023-02-28T06:25:47;16.10;;;11.30;;
12165;SDS011;6146;48.128;11.476;2023-02-28T06:28:14;13.67;;;10.37;;
12165;SDS011;6146;48.128;11.476;2023-02-28T06:30:40;14.47;;;11.73;;
12165;SDS011;6146;48.128;11.476;2023-02-28T06:33:05;14.57;;;11.03;;
12165;SDS011;6146;48.128;11.476;2023-02-28T06:35:31;15.57;;;11.60;;
12165;SDS011;6146;48.128;11.476;2023-02-28T06:37:56;14.60;;;11.37;;
12165;SDS011;6146;48.128;11.476;2023-02-28T06:40:22;13.67;;;11.13;;
12165;SDS011;6146;48.128;11.476;2023-02-28T06:42:48;16.03;;;12.70;;
12165;SDS011;6146;48.128;11.476;2023-02-28T06:45:14;15.13;;;11.70;;
12165;SDS011;6146;48.128;11.476;2023-02-28T06:47:40;16.67;;;12.03;;
12165;SDS011;6146;48.128;11.476;2023-02-28T06:50:07;17.80;;;11.93;;
12165;SDS011;6146;48.128;11.476;2023-02-28T06:52:36;15.27;;;11.93;;
12165;SDS011;6146;48.128;11.476;2023-02-28T06:55:03;16.10;;;12.07;;
12165;SDS011;6146;48.128;11.476;2023-02-28T06:57:29;14.57;;;12.27;;
12165;SDS011;6146;48.128;11.476;2023-02-28T06:59:57;16.67;;;12.27;;
12165;SDS011;6146;48.128;11.476;2023-02-28T07:02:26;15.37;;;12.23;;
12165;SDS011;6146;48.128;11.476;2023-02-28T07:04:52;17.23;;;13.13;;
12165;SDS011;6146;48.128;11.476;2023-02-28T07:07:17;17.10;;;12.07;;
12165;SDS011;6146;48.128;11.476;2023-02-28T07:09:43;16.87;;;11.87;;
12165;SDS011;6146;48.128;11.476;2023-02-28T07:12:08;18.03;;;12.77;;
12165;SDS011;6146;48.128;11.476;2023-02-28T07:14:36;16.93;;;12.47;;
12165;SDS011;6146;48.128;11.476;2023-02-28T07:17:02;16.10;;;12.60;;
12165;SDS011;6146;48.128;11.476;2023-02-28T07:19:27;17.67;;;12.47;;
12165;SDS011;6146;48.128;11.476;2023-02-28T07:21:53;16.10;;;12.10;;
12165;SDS011;6146;48.128;11.476;2023-02-28T07:24:19;14.10;;;11.40;;
12165;SDS011;6146;48.128;11.476;2023-02-28T07:26:44;15.60;;;11.70;;
12165;SDS011;6146;48.128;11.476;2023-02-28T07:29:10;14.50;;;11.90;;
12165;SDS011;6146;48.128;11.476;2023-02-28T07:31:35;16.47;;;12.23;;
12165;SDS011;6146;48.128;11.476;2023-02-28T07:34:01;17.97;;;12.37;;
12165;SDS011;6146;48.128;11.476;2023-02-28T07:36:28;20.80;;;12.70;;
12165;SDS011;6146;48.128;11.476;2023-02-28T07:38:53;15.20;;;12.17;;
12165;SDS011;6146;48.128;11.476;2023-02-28T07:41:20;14.43;;;11.90;;
12165;SDS011;6146;48.128;11.476;2023-02-28T07:43:48;16.20;;;12.70;;
12165;SDS011;6146;48.128;11.476;2023-02-28T07:46:14;13.77;;;12.20;;
12165;SDS011;6146;48.128;11.476;2023-02-28T07:48:41;15.33;;;11.50;;
12165;SDS011;6146;48.128;11.476;2023-02-28T07:51:07;15.40;;;12.07;;
12165;SDS011;6146;48.128;11.476;2023-02-28T07:53:33;16.73;;;12.17;;
12165;SDS011;6146;48.128;11.476;2023-02-28T07:55:59;15.43;;;12.97;;
12165;SDS011;6146;48.128;11.476;2023-02-28T07:58:26;15.17;;;11.93;;
12165;SDS011;6146;48.128;11.476;2023-02-28T08:00:53;13.47;;;11.80;;
12165;SDS011;6146;48.128;11.476;2023-02-28T08:03:20;17.43;;;13.27;;
12165;SDS011;6146;48.128;11.476;2023-02-28T08:05:46;18.33;;;11.77;;
12165;SDS011;6146;48.128;11.476;2023-02-28T08:08:12;14.67;;;11.73;;
12165;SDS011;6146;48.128;11.476;2023-02-28T08:10:38;15.03;;;12.40;;
12165;SDS011;6146;48.128;11.476;2023-02-28T08:13:04;15.47;;;12.53;;
12165;SDS011;6146;48.128;11.476;2023-02-28T08:15:30;16.17;;;12.20;;
12165;SDS011;6146;48.128;11.476;2023-02-28T08:17:55;18.13;;;13.63;;
12165;SDS011;6146;48.128;11.476;2023-02-28T08:20:22;14.07;;;12.37;;
12165;SDS011;6146;48.128;11.476;2023-02-28T08:22:48;16.70;;;12.67;;
12165;SDS011;6146;48.128;11.476;2023-02-28T08:25:14;15.60;;;12.17;;
12165;SDS011;6146;48.128;11.476;2023-02-28T08:27:39;16.73;;;12.63;;
12165;SDS011;6146;48.128;11.476;2023-02-28T08:30:05;13.77;;;12.03;;
12165;SDS011;6146;48.128;11.476;2023-02-28T08:32:32;14.33;;;12.40;;
12165;SDS011;6146;48.128;11.476;2023-02-28T08:34:58;14.63;;;11.63;;
12165;SDS011;6146;48.128;11.476;2023-02-28T08:37:24;15.40;;;12.20;;
12165;SDS011;6146;48.128;11.476;2023-02-28T08:39:50;15.70;;;12.47;;
12165;SDS011;6146;48.128;11.476;2023-02-28T08:42:15;13.53;;;11.70;;
12165;SDS011;6146;48.128;11.476;2023-02-28T08:44:41;16.03;;;13.47;;
12165;SDS011;6146;48.128;11.476;2023-02-28T08:47:07;14.30;;;12.37;;
12165;SDS011;6146;48.128;11.476;2023-02-28T08:49:33;15.47;;;12.40;;
12165;SDS011;6146;48.128;11.476;2023-02-28T08:51:58;16.83;;;13.10;;
12165;SDS011;6146;48.128;11.476;2023-02-28T08:54:24;14.77;;;12.07;;
12165;SDS011;6146;48.128;11.476;2023-02-28T08:56:50;16.73;;;12.17;;
12165;SDS011;6146;48.128;11.476;2023-02-28T08:59:15;16.77;;;13.10;;
12165;SDS011;6146;48.128;11.476;2023-02-28T09:01:41;15.37;;;12.30;;
12165;SDS011;6146;48.128;11.476;2023-02-28T09:04:08;14.77;;;12.10;;
12165;SDS011;6146;48.128;11.476;2023-02-28T09:06:35;15.73;;;12.20;;
12165;SDS011;6146;48.128;11.476;2023-02-28T09:09:01;14.73;;;12.70;;
12165;SDS011;6146;48.128;11.476;2023-02-28T09:11:29;15.57;;;12.97;;
12165;SDS011;6146;48.128;11.476;2023-02-28T09:13:55;14.87;;;12.57;;
12165;SDS011;6146;48.128;11.476;2023-02-28T09:16:20;15.50;;;13.07;;
12165;SDS011;6146;48.128;11.476;2023-02-28T09:18:46;14.70;;;12.93;;
12165;SDS011;6146;48.128;11.476;2023-02-28T09:21:13;15.40;;;12.83;;
12165;SDS011;6146;48.128;11.476;2023-02-28T09:23:41;15.77;;;12.70;;
12165;SDS011;6146;48.128;11.476;2023-02-28T09:26:08;17.17;;;13.27;;
12165;SDS011;6146;48.128;11.476;2023-02-28T09:28:42;14.73;;;11.83;;
12165;SDS011;6146;48.128;11.476;2023-02-28T09:31:11;15.83;;;12.23;;
12165;SDS011;6146;48.128;11.476;2023-02-28T09:33:38;16.03;;;12.10;;
12165;SDS011;6146;48.128;11.476;2023-02-28T09:36:04;15.43;;;12.67;;
12165;SDS011;6146;48.128;11.476;2023-02-28T09:38:29;14.50;;;12.70;;
12165;SDS011;6146;48.128;11.476;2023-02-28T09:40:56;15.77;;;12.80;;
12165;SDS011;6146;48.128;11.476;2023-02-28T09:43:38;15.20;;;12.50;;
12165;SDS011;6146;48.128;11.476;2023-02-28T09:46:12;16.67;;;12.67;;
12165;SDS011;6146;48.128;11.476;2023-02-28T09:49:05;14.20;;;11.47;;
12165;SDS011;6146;48.128;11.476;2023-02-28T09:54:33;15.70;;;11.97;;
12165;SDS011;6146;48.128;11.476;2023-02-28T09:57:13;19.13;;;12.43;;
12165;SDS011;6146;48.128;11.476;2023-02-28T10:05:33;14.77;;;12.43;;
12165;SDS011;6146;48.128;11.476;2023-02-28T10:08:16;16.43;;;12.97;;
12165;SDS011;6146;48.128;11.476;2023-02-28T10:10:51;16.90;;;13.63;;
12165;SDS011;6146;48.128;11.476;2023-02-28T10:13:27;16.77;;;12.47;;
12165;SDS011;6146;48.128;11.476;2023-02-28T10:16:26;16.07;;;12.70;;
12165;SDS011;6146;48.128;11.476;2023-02-28T10:22:05;19.30;;;12.90;;
12165;SDS011;6146;48.128;11.476;2023-02-28T10:24:44;14.77;;;11.60;;
12165;SDS011;6146;48.128;11.476;2023-02-28T10:29:48;15.50;;;12.43;;
12165;SDS011;6146;48.128;11.476;2023-02-28T10:32:17;16.27;;;13.20;;
12165;SDS011;6146;48.128;11.476;2023-02-28T10:34:44;15.53;;;12.90;;
12165;SDS011;6146;48.128;11.476;2023-02-28T10:37:23;15.57;;;12.47;;
12165;SDS011;6146;48.128;11.476;2023-02-28T10:39:48;14.33;;;11.90;;
12165;SDS011;6146;48.128;11.476;2023-02-28T10:42:47;16.70;;;12.97;;
12165;SDS011;6146;48.128;11.476;2023-02-28T10:45:13;14.37;;;11.70;;
12165;SDS011;6146;48.128;11.476;2023-02-28T10:47:57;14.73;;;12.43;;
12165;SDS011;6146;48.128;11.476;2023-02-28T10:53:14;14.47;;;12.17;;
12165;SDS011;6146;48.128;11.476;2023-02-28T11:01:21;17.00;;;13.63;;
12165;SDS011;6146;48.128;11.476;2023-02-28T11:07:18;13.00;;;11.20;;
12165;SDS011;6146;48.128;11.476;2023-02-28T11:09:46;18.93;;;11.67;;
12165;SDS011;6146;48.128;11.476;2023-02-28T11:15:07;12.87;;;11.47;;
12165;SDS011;6146;48.128;11.476;2023-02-28T11:17:58;14.13;;;11.97;;
12165;SDS011;6146;48.128;11.476;2023-02-28T11:20:26;15.13;;;12.47;;
12165;SDS011;6146;48.128;11.476;2023-02-28T11:22:55;13.87;;;12.07;;
12165;SDS011;6146;48.128;11.476;2023-02-28T11:25:23;12.67;;;11.37;;
12165;SDS011;6146;48.128;11.476;2023-02-28T11:27:58;16.93;;;12.50;;
12165;SDS011;6146;48.128;11.476;2023-02-28T11:36:01;14.57;;;11.30;;
12165;SDS011;6146;48.128;11.476;2023-02-28T11:38:29;14.63;;;12.20;;
12165;SDS011;6146;48.128;11.476;2023-02-28T11:41:22;14.93;;;11.77;;
12165;SDS011;6146;48.128;11.476;2023-02-28T11:44:09;15.03;;;11.93;;
12165;SDS011;6146;48.128;11.476;2023-02-28T11:47:01;15.67;;;11.83;;
12165;SDS011;6146;48.128;11.476;2023-02-28T11:57:35;13.53;;;11.23;;
12165;SDS011;6146;48.128;11.476;2023-02-28T12:05:44;14.23;;;11.00;;
12165;SDS011;6146;48.128;11.476;2023-02-28T12:11:10;12.10;;;10.50;;
12165;SDS011;6146;48.128;11.476;2023-02-28T12:13:43;12.17;;;10.97;;
12165;SDS011;6146;48.128;11.476;2023-02-28T12:16:29;13.20;;;11.50;;
12165;SDS011;6146;48.128;11.476;2023-02-28T12:19:20;13.10;;;11.00;;
12165;SDS011;6146;48.128;11.476;2023-02-28T12:27:32;12.37;;;11.07;;
12165;SDS011;6146;48.128;11.476;2023-02-28T12:30:03;12.77;;;11.17;;
12165;SDS011;6146;48.128;11.476;2023-02-28T12:32:42;12.97;;;11.03;;
12165;SDS011;6146;48.128;11.476;2023-02-28T12:35:12;12.50;;;10.57;;
12165;SDS011;6146;48.128;11.476;2023-02-28T12:37:47;12.50;;;11.17;;
12165;SDS011;6146;48.128;11.476;2023-02-28T12:40:23;11.40;;;10.20;;
12165;SDS011;6146;48.128;11.476;2023-02-28T12:42:59;13.60;;;10.37;;
12165;SDS011;6146;48.128;11.476;2023-02-28T12:48:24;11.10;;;10.00;;
12165;SDS011;6146;48.128;11.476;2023-02-28T12:51:11;10.67;;;9.67;;
12165;SDS011;6146;48.128;11.476;2023-02-28T13:07:23;11.53;;;9.73;;
12165;SDS011;6146;48.128;11.476;2023-02-28T13:10:14;11.97;;;9.90;;
12165;SDS011;6146;48.128;11.476;2023-02-28T13:12:51;12.60;;;10.90;;
12165;SDS011;6146;48.128;11.476;2023-02-28T13:17:53;11.13;;;9.93;;
12165;SDS011;6146;48.128;11.476;2023-02-28T13:20:29;11.93;;;10.17;;
12165;SDS011;6146;48.128;11.476;2023-02-28T13:22:59;11.67;;;10.47;;
12165;SDS011;6146;48.128;11.476;2023-02-28T13:25:49;11.57;;;10.37;;
12165;SDS011;6146;48.128;11.476;2023-02-28T13:28:56;11.43;;;10.30;;
12165;SDS011;6146;48.128;11.476;2023-02-28T13:31:13;11.30;;;10.10;;
12165;SDS011;6146;48.128;11.476;2023-02-28T13:38:51;10.83;;;9.67;;
12165;SDS011;6146;48.128;11.476;2023-02-28T13:43:59;11.40;;;9.93;;
12165;SDS011;6146;48.128;11.476;2023-02-28T13:46:36;11.00;;;9.90;;
12165;SDS011;6146;48.128;11.476;2023-02-28T13:55:06;11.20;;;10.00;;
12165;SDS011;6146;48.128;11.476;2023-02-28T13:58:08;11.80;;;10.33;;
12165;SDS011;6146;48.128;11.476;2023-02-28T14:01:07;14.97;;;10.47;;
12165;SDS011;6146;48.128;11.476;2023-02-28T14:03:51;14.63;;;10.87;;
12165;SDS011;6146;48.128;11.476;2023-02-28T14:11:35;12.20;;;10.00;;
12165;SDS011;6146;48.128;11.476;2023-02-28T14:14:03;12.80;;;10.70;;
12165;SDS011;6146;48.128;11.476;2023-02-28T14:16:38;12.07;;;10.73;;
12165;SDS011;6146;48.128;11.476;2023-02-28T14:25:09;12.93;;;10.93;;
12165;SDS011;6146;48.128;11.476;2023-02-28T14:31:18;13.47;;;10.57;;
12165;SDS011;6146;48.128;11.476;2023-02-28T14:34:04;11.57;;;9.83;;
12165;SDS011;6146;48.128;11.476;2023-02-28T14:36:41;12.70;;;10.40;;
12165;SDS011;6146;48.128;11.476;2023-02-28T14:39:11;11.60;;;10.13;;
12165;SDS011;6146;48.128;11.476;2023-02-28T14:41:38;10.70;;;9.53;;
12165;SDS011;6146;48.128;11.476;2023-02-28T14:44:18;13.73;;;10.10;;
12165;SDS011;6146;48.128;11.476;2023-02-28T14:46:46;10.43;;;9.33;;
12165;SDS011;6146;48.128;11.476;2023-02-28T14:52:01;13.67;;;10.20;;
12165;SDS011;6146;48.128;11.476;2023-02-28T14:54:42;12.00;;;9.77;;
12165;SDS011;6146;48.128;11.476;2023-02-28T14:57:23;12.90;;;10.33;;
12165;SDS011;6146;48.128;11.476;2023-02-28T15:00:11;13.30;;;10.53;;
12165;SDS011;6146;48.128;11.476;2023-02-28T15:02:46;11.93;;;9.53;;
12165;SDS011;6146;48.128;11.476;2023-02-28T15:07:37;11.80;;;10.20;;
12165;SDS011;6146;48.128;11.476;2023-02-28T15:10:16;12.47;;;9.97;;
12165;SDS011;6146;48.128;11.476;2023-02-28T15:15:17;12.37;;;9.50;;
12165;SDS011;6146;48.128;11.476;2023-02-28T15:17:46;12.80;;;10.07;;
12165;SDS011;6146;48.128;11.476;2023-02-28T15:20:15;10.83;;;9.47;;
12165;SDS011;6146;48.128;11.476;2023-02-28T15:22:41;11.07;;;9.83;;
12165;SDS011;6146;48.128;11.476;2023-02-28T15:25:09;13.00;;;10.73;;
12165;SDS011;6146;48.128;11.476;2023-02-28T15:27:41;13.63;;;10.23;;
12165;SDS011;6146;48.128;11.476;2023-02-28T15:30:17;11.47;;;9.87;;
12165;SDS011;6146;48.128;11.476;2023-02-28T15:33:07;14.40;;;10.63;;
12165;SDS011;6146;48.128;11.476;2023-02-28T15:35:36;11.17;;;9.80;;
12165;SDS011;6146;48.128;11.476;2023-02-28T15:38:03;11.63;;;10.40;;
12165;SDS011;6146;48.128;11.476;2023-02-28T15:40:53;12.33;;;9.23;;
12165;SDS011;6146;48.128;11.476;2023-02-28T15:43:27;11.20;;;10.00;;
12165;SDS011;6146;48.128;11.476;2023-02-28T15:48:38;11.67;;;9.53;;
12165;SDS011;6146;48.128;11.476;2023-02-28T15:51:14;11.90;;;9.87;;
12165;SDS011;6146;48.128;11.476;2023-02-28T15:53:48;12.00;;;9.73;;
12165;SDS011;6146;48.128;11.476;2023-02-28T15:56:32;12.10;;;10.23;;
12165;SDS011;6146;48.128;11.476;2023-02-28T15:59:04;10.87;;;9.40;;
12165;SDS011;6146;48.128;11.476;2023-02-28T16:01:33;15.70;;;10.67;;
12165;SDS011;6146;48.128;11.476;2023-02-28T16:04:01;12.07;;;10.10;;
12165;SDS011;6146;48.128;11.476;2023-02-28T16:06:44;12.83;;;9.70;;
12165;SDS011;6146;48.128;11.476;2023-02-28T16:09:12;14.03;;;10.43;;
12165;SDS011;6146;48.128;11.476;2023-02-28T16:11:44;13.53;;;10.73;;
12165;SDS011;6146;48.128;11.476;2023-02-28T16:14:13;13.90;;;10.67;;
12165;SDS011;6146;48.128;11.476;2023-02-28T16:16:42;12.17;;;10.77;;
12165;SDS011;6146;48.128;11.476;2023-02-28T16:19:13;12.70;;;9.77;;
12165;SDS011;6146;48.128;11.476;2023-02-28T16:21:39;14.93;;;10.17;;
12165;SDS011;6146;48.128;11.476;2023-02-28T16:24:05;12.00;;;10.07;;
12165;SDS011;6146;48.128;11.476;2023-02-28T16:26:31;11.93;;;10.30;;
12165;SDS011;6146;48.128;11.476;2023-02-28T16:28:59;11.73;;;9.80;;
12165;SDS011;6146;48.128;11.476;2023-02-28T16:31:25;13.63;;;10.57;;
12165;SDS011;6146;48.128;11.476;2023-02-28T16:33:51;14.00;;;10.70;;
12165;SDS011;6146;48.128;11.476;2023-02-28T16:36:18;12.13;;;10.83;;
12165;SDS011;6146;48.128;11.476;2023-02-28T16:38:45;14.43;;;10.40;;
12165;SDS011;6146;48.128;11.476;2023-02-28T16:41:16;12.97;;;10.53;;
12165;SDS011;6146;48.128;11.476;2023-02-28T16:43:47;12.57;;;10.47;;
12165;SDS011;6146;48.128;11.476;2023-02-28T16:46:15;13.87;;;11.00;;
12165;SDS011;6146;48.128;11.476;2023-02-28T16:48:41;15.80;;;11.40;;
12165;SDS011;6146;48.128;11.476;2023-02-28T16:51:11;14.17;;;10.70;;
12165;SDS011;6146;48.128;11.476;2023-02-28T16:53:37;13.77;;;11.00;;
12165;SDS011;6146;48.128;11.476;2023-02-28T16:56:03;12.00;;;10.53;;
12165;SDS011;6146;48.128;11.476;2023-02-28T16:58:31;14.53;;;11.03;;
12165;SDS011;6146;48.128;11.476;2023-02-28T17:01:00;14.73;;;11.03;;
12165;SDS011;6146;48.128;11.476;2023-02-28T17:03:27;17.07;;;11.60;;
12165;SDS011;6146;48.128;11.476;2023-02-28T17:05:53;14.50;;;11.23;;
12165;SDS011;6146;48.128;11.476;2023-02-28T17:08:19;12.90;;;11.27;;
12165;SDS011;6146;48.128;11.476;2023-02-28T17:10:45;12.30;;;10.30;;